createdAt,value
2023-03-31T00:02:07.512Z,99604.59
2023-03-31T00:04:36.906Z,99594.56
2023-03-31T00:07:06.070Z,99594.50
2023-03-31T00:09:33.573Z,99586.38
2023-03-31T00:12:00.380Z,99589.00
2023-03-31T00:14:27.006Z,99586.63
2023-03-31T00:16:53.884Z,99594.41
2023-03-31T00:19:21.272Z,99594.78
2023-03-31T00:21:48.574Z,99596.09
2023-03-31T00:24:16.327Z,99579.47
2023-03-31T00:26:43.631Z,99568.66
2023-03-31T00:29:14.550Z,99568.81
2023-03-31T00:31:41.285Z,99556.19
2023-03-31T00:34:07.928Z,99551.81
2023-03-31T00:36:38.866Z,99550.00
2023-03-31T00:39:18.763Z,99546.72
2023-03-31T00:41:45.770Z,99542.38
2023-03-31T00:44:14.330Z,99540.31
2023-03-31T00:47:02.435Z,99546.16
2023-03-31T00:49:40.746Z,99535.75
2023-03-31T00:52:13.582Z,99537.97
2023-03-31T00:54:42.967Z,99533.06
2023-03-31T00:57:10.309Z,99538.16
2023-03-31T00:59:43.012Z,99538.22
2023-03-31T01:02:10.084Z,99529.31
2023-03-31T01:04:41.640Z,99532.81
2023-03-31T01:07:17.092Z,99520.00
2023-03-31T01:09:47.944Z,99521.19
2023-03-31T01:12:16.487Z,99521.31
2023-03-31T01:14:43.474Z,99521.19
2023-03-31T01:17:10.649Z,99512.00
2023-03-31T01:20:01.719Z,99507.03
2023-03-31T01:22:46.070Z,99500.50
2023-03-31T01:25:42.308Z,99500.22
2023-03-31T01:28:16.217Z,99503.03
2023-03-31T01:30:46.182Z,99493.03
2023-03-31T01:33:18.903Z,99496.81
2023-03-31T01:35:54.467Z,99489.81
2023-03-31T01:38:33.583Z,99483.84
2023-03-31T01:41:08.901Z,99481.19
2023-03-31T01:46:36.431Z,99473.75
2023-03-31T01:49:18.347Z,99470.69
2023-03-31T01:51:51.986Z,99473.94
2023-03-31T01:54:18.583Z,99475.53
2023-03-31T01:57:08.576Z,99469.38
2023-03-31T01:59:40.422Z,99463.50
2023-03-31T02:02:33.483Z,99462.50
2023-03-31T02:05:05.562Z,99454.38
2023-03-31T02:07:34.949Z,99448.81
2023-03-31T02:10:04.737Z,99445.59
2023-03-31T02:12:31.964Z,99442.53
2023-03-31T02:15:00.806Z,99432.16
2023-03-31T02:17:30.456Z,99435.38
2023-03-31T02:19:59.376Z,99436.72
2023-03-31T02:22:27.558Z,99438.59
2023-03-31T02:24:55.456Z,99436.59
2023-03-31T02:27:24.474Z,99427.63
2023-03-31T02:29:51.806Z,99426.66
2023-03-31T02:32:32.617Z,99422.31
2023-03-31T02:35:00.908Z,99416.06
2023-03-31T02:37:28.901Z,99412.47
2023-03-31T02:39:56.512Z,99401.69
2023-03-31T02:42:23.637Z,99405.63
2023-03-31T02:44:54.469Z,99394.81
2023-03-31T02:47:22.105Z,99404.66
2023-03-31T02:49:50.976Z,99403.47
2023-03-31T02:52:23.641Z,99393.97
2023-03-31T02:54:56.361Z,99383.34
2023-03-31T02:57:33.083Z,99386.22
2023-03-31T03:00:18.100Z,99380.19
2023-03-31T03:03:05.052Z,99383.25
2023-03-31T03:05:34.883Z,99378.31
2023-03-31T03:08:36.621Z,99365.66
2023-03-31T03:11:12.706Z,99370.66
2023-03-31T03:13:40.266Z,99364.91
2023-03-31T03:16:24.767Z,99369.63
2023-03-31T03:19:00.856Z,99361.69
2023-03-31T03:21:28.614Z,99349.59
2023-03-31T03:23:55.448Z,99346.59
2023-03-31T03:26:23.720Z,99353.94
2023-03-31T03:28:51.265Z,99352.81
2023-03-31T03:31:18.237Z,99349.78
2023-03-31T03:33:44.907Z,99348.66
2023-03-31T03:36:11.565Z,99341.50
2023-03-31T03:38:38.244Z,99339.41
2023-03-31T03:41:04.950Z,99337.34
2023-03-31T03:43:31.707Z,99326.34
2023-03-31T03:45:58.342Z,99323.81
2023-03-31T03:48:24.951Z,99326.47
2023-03-31T03:50:55.674Z,99321.06
2023-03-31T03:53:22.292Z,99311.44
2023-03-31T03:55:49.757Z,99305.38
2023-03-31T03:58:17.197Z,99309.94
2023-03-31T04:00:45.395Z,99316.38
2023-03-31T04:03:12.632Z,99311.28
2023-03-31T04:05:42.424Z,99297.19
2023-03-31T04:08:09.110Z,99296.44
2023-03-31T04:10:36.089Z,99295.78
2023-03-31T04:13:02.939Z,99291.84
2023-03-31T04:15:29.499Z,99280.28
2023-03-31T04:17:59.001Z,99279.69
2023-03-31T04:20:27.911Z,99263.00
2023-03-31T04:22:57.446Z,99266.19
2023-03-31T04:25:24.060Z,99254.34
2023-03-31T04:27:55.049Z,99256.81
2023-03-31T04:30:33.623Z,99258.88
2023-03-31T04:33:04.347Z,99249.41
2023-03-31T04:35:49.725Z,99237.66
2023-03-31T04:38:20.581Z,99231.13
2023-03-31T04:40:48.222Z,99226.31
2023-03-31T04:43:15.654Z,99212.75
2023-03-31T04:45:42.716Z,99215.06
2023-03-31T04:48:12.102Z,99211.22
2023-03-31T04:50:39.011Z,99209.00
2023-03-31T04:53:05.961Z,99200.84
2023-03-31T04:55:32.621Z,99199.59
2023-03-31T04:57:59.168Z,99190.00
2023-03-31T05:00:26.725Z,99190.81
2023-03-31T05:02:53.355Z,99183.47
2023-03-31T05:05:20.094Z,99178.19
2023-03-31T05:07:46.711Z,99172.16
2023-03-31T05:10:13.372Z,99168.34
2023-03-31T05:12:40.061Z,99165.53
2023-03-31T05:15:08.268Z,99168.34
2023-03-31T05:17:35.582Z,99157.03
2023-03-31T05:20:06.141Z,99152.13
2023-03-31T05:22:34.458Z,99149.41
2023-03-31T05:25:00.980Z,99142.13
2023-03-31T05:27:27.557Z,99151.19
2023-03-31T05:29:54.166Z,99128.00
2023-03-31T05:32:20.733Z,99123.75
2023-03-31T05:34:52.011Z,99119.66
2023-03-31T05:37:21.936Z,99125.13
2023-03-31T05:39:48.584Z,99128.72
2023-03-31T05:42:15.230Z,99125.91
2023-03-31T05:44:41.911Z,99116.00
2023-03-31T05:47:08.485Z,99119.03
2023-03-31T05:49:35.149Z,99116.19
2023-03-31T05:52:01.972Z,99109.09
2023-03-31T05:54:28.618Z,99103.66
2023-03-31T05:56:55.502Z,99099.84
2023-03-31T05:59:22.326Z,99099.25
2023-03-31T06:01:49.043Z,99105.97
2023-03-31T06:04:15.812Z,99107.56
2023-03-31T06:06:44.398Z,99110.88
2023-03-31T06:09:13.900Z,99101.88
2023-03-31T06:11:40.664Z,99102.00
2023-03-31T06:14:07.391Z,99099.78
2023-03-31T06:16:39.431Z,99094.84
2023-03-31T06:19:06.043Z,99096.09
2023-03-31T06:21:35.594Z,99088.44
2023-03-31T06:24:02.214Z,99102.88
2023-03-31T06:26:28.832Z,99090.91
2023-03-31T06:28:55.778Z,99098.84
2023-03-31T06:31:23.679Z,99098.69
2023-03-31T06:33:50.815Z,99089.97
2023-03-31T06:36:18.913Z,99084.75
2023-03-31T06:38:46.170Z,99077.13
2023-03-31T06:41:13.982Z,99077.13
2023-03-31T06:43:40.683Z,99081.91
2023-03-31T06:46:07.856Z,99077.22
2023-03-31T06:48:37.464Z,99067.06
2023-03-31T06:51:08.103Z,99072.13
2023-03-31T06:53:35.104Z,99049.59
2023-03-31T06:56:01.696Z,99050.31
2023-03-31T06:58:31.134Z,99046.41
2023-03-31T07:01:00.932Z,99046.41
2023-03-31T07:03:29.604Z,99041.75
2023-03-31T07:05:56.660Z,99037.94
2023-03-31T07:08:23.925Z,99038.16
2023-03-31T07:10:58.494Z,99041.72
2023-03-31T07:13:25.595Z,99040.06
2023-03-31T07:15:52.721Z,99040.91
2023-03-31T07:18:20.003Z,99031.47
2023-03-31T07:20:52.249Z,99027.44
2023-03-31T07:23:19.577Z,99034.31
2023-03-31T07:25:49.305Z,99036.63
2023-03-31T07:28:16.248Z,99034.75
2023-03-31T07:30:42.997Z,99028.59
2023-03-31T07:33:10.171Z,99023.19
2023-03-31T07:35:40.688Z,99022.88
2023-03-31T07:38:08.319Z,99016.63
2023-03-31T07:40:34.903Z,99015.44
2023-03-31T07:43:01.982Z,99009.91
2023-03-31T07:45:28.633Z,99013.25
2023-03-31T07:47:58.408Z,99019.91
2023-03-31T07:50:27.086Z,99006.34
2023-03-31T07:52:56.207Z,99010.38
2023-03-31T07:55:23.890Z,99003.84
2023-03-31T07:57:51.474Z,99005.22
2023-03-31T08:00:18.633Z,99017.63
2023-03-31T08:02:45.923Z,99012.00
2023-03-31T08:05:13.460Z,99005.56
2023-03-31T08:07:43.954Z,99006.13
2023-03-31T08:10:12.078Z,98986.91
2023-03-31T08:12:38.646Z,98980.94
2023-03-31T08:15:05.924Z,98990.34
2023-03-31T08:17:32.970Z,98989.94
2023-03-31T08:20:03.692Z,98985.16
2023-03-31T08:22:33.159Z,98971.00
2023-03-31T08:25:04.245Z,98962.50
2023-03-31T08:27:35.007Z,98976.66
2023-03-31T08:30:06.707Z,98976.63
2023-03-31T08:32:34.149Z,98971.75
2023-03-31T08:35:00.846Z,98964.81
2023-03-31T08:37:28.478Z,98956.84
2023-03-31T08:39:55.812Z,98960.06
2023-03-31T08:42:32.925Z,98949.66
2023-03-31T08:45:02.252Z,98949.41
2023-03-31T08:47:32.407Z,98939.38
2023-03-31T08:50:00.930Z,98940.75
2023-03-31T08:52:37.003Z,98929.06
2023-03-31T08:55:06.499Z,98932.69
2023-03-31T08:57:49.472Z,98923.28
2023-03-31T09:00:22.305Z,98907.91
2023-03-31T09:03:03.759Z,98907.19
2023-03-31T09:05:57.325Z,98909.16
2023-03-31T09:08:47.296Z,98903.16
2023-03-31T09:11:32.684Z,98893.56
2023-03-31T09:14:24.299Z,98900.81
2023-03-31T09:16:54.086Z,98894.88
2023-03-31T09:19:29.735Z,98892.97
2023-03-31T09:21:57.112Z,98882.34
2023-03-31T09:24:36.263Z,98879.13
2023-03-31T09:27:07.390Z,98875.50
2023-03-31T09:29:37.561Z,98863.06
2023-03-31T09:32:13.451Z,98869.84
2023-03-31T09:34:40.103Z,98864.13
2023-03-31T09:37:08.988Z,98859.00
2023-03-31T09:39:36.050Z,98857.00
2023-03-31T09:42:02.699Z,98855.81
2023-03-31T09:44:40.585Z,98856.09
2023-03-31T09:47:11.614Z,98859.44
2023-03-31T09:49:39.253Z,98854.88
2023-03-31T09:52:16.201Z,98840.88
2023-03-31T09:54:53.596Z,98835.81
2023-03-31T09:57:33.335Z,98843.28
2023-03-31T10:00:16.292Z,98831.97
2023-03-31T10:02:45.885Z,98823.03
2023-03-31T10:05:21.378Z,98823.72
2023-03-31T10:07:48.041Z,98813.13
2023-03-31T10:10:31.558Z,98817.03
2023-03-31T10:12:58.458Z,98813.88
2023-03-31T10:15:28.526Z,98820.38
2023-03-31T10:17:57.995Z,98819.63
2023-03-31T10:20:32.552Z,98820.72
2023-03-31T10:23:17.265Z,98824.94
2023-03-31T10:25:45.103Z,98818.53
2023-03-31T10:28:13.065Z,98817.81
2023-03-31T10:30:41.353Z,98815.63
2023-03-31T10:33:22.241Z,98828.44
2023-03-31T10:35:51.151Z,98807.56
2023-03-31T10:38:24.178Z,98815.50
2023-03-31T10:40:52.294Z,98810.09
2023-03-31T10:43:21.227Z,98813.66
2023-03-31T10:45:52.486Z,98805.94
2023-03-31T10:48:39.841Z,98807.56
2023-03-31T10:51:14.232Z,98807.41
2023-03-31T10:53:42.391Z,98815.72
2023-03-31T10:56:21.393Z,98812.34
2023-03-31T10:59:04.473Z,98818.94
2023-03-31T11:01:58.977Z,98824.75
2023-03-31T11:04:43.350Z,98829.69
2023-03-31T11:07:30.072Z,98821.06
2023-03-31T11:10:26.098Z,98818.28
2023-03-31T11:12:57.240Z,98826.06
2023-03-31T11:15:29.630Z,98818.69
2023-03-31T11:18:14.883Z,98819.78
2023-03-31T11:20:46.377Z,98816.63
2023-03-31T11:23:31.965Z,98816.47
2023-03-31T11:26:07.713Z,98807.41
2023-03-31T11:28:46.447Z,98817.38
2023-03-31T11:31:22.127Z,98817.25
2023-03-31T11:33:57.624Z,98809.63
2023-03-31T11:36:42.886Z,98809.84
2023-03-31T11:39:12.387Z,98808.59
2023-03-31T11:41:45.820Z,98800.97
2023-03-31T11:44:15.424Z,98798.63
2023-03-31T11:46:42.029Z,98799.03
2023-03-31T11:49:16.886Z,98792.81
2023-03-31T11:51:58.834Z,98795.47
2023-03-31T11:54:25.529Z,98788.28
2023-03-31T11:56:53.587Z,98788.28
2023-03-31T11:59:21.479Z,98787.63
2023-03-31T12:01:59.282Z,98782.59
2023-03-31T12:04:25.879Z,98785.31
2023-03-31T12:06:54.446Z,98788.72
2023-03-31T12:09:47.555Z,98780.06
2023-03-31T12:12:21.371Z,98778.56
2023-03-31T12:14:55.985Z,98777.06
2023-03-31T12:17:29.942Z,98774.13
2023-03-31T12:19:59.546Z,98773.50
2023-03-31T12:22:29.148Z,98771.16
2023-03-31T12:24:56.084Z,98766.47
2023-03-31T12:27:34.729Z,98767.63
2023-03-31T12:30:03.277Z,98765.81
2023-03-31T12:32:31.475Z,98751.06
2023-03-31T12:34:58.608Z,98756.31
2023-03-31T12:37:34.394Z,98760.00
2023-03-31T12:40:03.166Z,98760.94
2023-03-31T12:42:29.703Z,98758.50
2023-03-31T12:45:14.876Z,98762.00
2023-03-31T12:47:53.680Z,98756.31
2023-03-31T12:50:30.829Z,98747.56
2023-03-31T12:53:16.241Z,98755.75
2023-03-31T12:55:52.030Z,98754.13
2023-03-31T12:58:25.018Z,98748.91
2023-03-31T13:01:11.348Z,98743.38
2023-03-31T13:03:41.891Z,98740.53
2023-03-31T13:06:28.329Z,98738.75
2023-03-31T13:08:58.026Z,98729.69
2023-03-31T13:11:33.650Z,98728.78
2023-03-31T13:14:02.410Z,98725.94
2023-03-31T13:16:30.024Z,98721.22
2023-03-31T13:18:57.499Z,98717.88
2023-03-31T13:21:24.737Z,98724.03
2023-03-31T13:23:51.445Z,98710.97
2023-03-31T13:26:33.349Z,98712.09
2023-03-31T13:29:17.341Z,98710.91
2023-03-31T13:32:02.259Z,98693.94
2023-03-31T13:34:42.367Z,98685.03
2023-03-31T13:37:31.049Z,98683.66
2023-03-31T13:40:16.134Z,98685.38
2023-03-31T13:42:51.767Z,98670.69
2023-03-31T13:45:37.310Z,98672.13
2023-03-31T13:48:13.438Z,98667.16
2023-03-31T13:50:52.180Z,98662.16
2023-03-31T13:53:31.149Z,98655.59
2023-03-31T13:56:07.941Z,98651.94
2023-03-31T13:58:35.589Z,98651.41
2023-03-31T14:01:11.401Z,98656.00
2023-03-31T14:03:40.522Z,98648.19
2023-03-31T14:06:16.168Z,98653.38
2023-03-31T14:08:47.474Z,98645.75
2023-03-31T14:11:23.277Z,98648.56
2023-03-31T14:14:19.176Z,98652.41
2023-03-31T14:16:48.594Z,98639.03
2023-03-31T14:19:36.124Z,98640.66
2023-03-31T14:22:24.135Z,98635.75
2023-03-31T14:25:00.112Z,98633.78
2023-03-31T14:27:26.793Z,98641.97
2023-03-31T14:29:57.950Z,98626.09
2023-03-31T14:32:29.594Z,98638.44
2023-03-31T14:34:59.861Z,98630.00
2023-03-31T14:37:28.258Z,98626.59
2023-03-31T14:39:56.834Z,98629.16
2023-03-31T14:42:27.083Z,98628.09
2023-03-31T14:44:58.113Z,98634.97
2023-03-31T14:47:29.782Z,98628.06
2023-03-31T14:50:07.661Z,98626.38
2023-03-31T14:52:35.801Z,98633.53
2023-03-31T14:55:04.643Z,98626.72
2023-03-31T14:57:34.612Z,98625.94
2023-03-31T15:00:05.717Z,98619.00
2023-03-31T15:02:37.314Z,98612.75
2023-03-31T15:05:05.784Z,98615.56
2023-03-31T15:07:32.580Z,98612.78
2023-03-31T15:09:59.519Z,98614.72
2023-03-31T15:12:28.510Z,98619.19
2023-03-31T15:14:58.170Z,98619.72
2023-03-31T15:17:26.581Z,98621.16
2023-03-31T15:19:54.375Z,98623.81
2023-03-31T15:22:30.406Z,98615.28
2023-03-31T15:24:57.781Z,98618.66
2023-03-31T15:27:35.912Z,98622.16
2023-03-31T15:30:07.696Z,98622.03
2023-03-31T15:32:41.064Z,98625.38
2023-03-31T15:35:22.047Z,98623.09
2023-03-31T15:37:50.571Z,98625.84
2023-03-31T15:40:19.824Z,98623.88
2023-03-31T15:43:01.582Z,98628.59
2023-03-31T15:45:49.691Z,98616.81
2023-03-31T15:48:36.610Z,98617.19
2023-03-31T15:51:07.150Z,98615.56
2023-03-31T15:53:41.157Z,98614.81
2023-03-31T15:56:08.347Z,98615.09
2023-03-31T15:58:53.930Z,98610.91
2023-03-31T16:01:24.030Z,98617.13
2023-03-31T16:03:55.283Z,98606.50
2023-03-31T16:06:28.305Z,98609.50
2023-03-31T16:09:00.795Z,98601.47
2023-03-31T16:11:33.514Z,98608.59
2023-03-31T16:14:01.749Z,98608.56
2023-03-31T16:16:29.603Z,98611.97
2023-03-31T16:19:04.178Z,98610.44
2023-03-31T16:21:36.365Z,98606.91
2023-03-31T16:24:05.345Z,98611.13
2023-03-31T16:26:32.335Z,98615.00
2023-03-31T16:29:01.044Z,98614.38
2023-03-31T16:31:37.133Z,98620.44
2023-03-31T16:34:04.893Z,98618.06
2023-03-31T16:36:31.559Z,98616.75
2023-03-31T16:39:01.894Z,98622.44
2023-03-31T16:41:29.627Z,98624.78
2023-03-31T16:43:56.362Z,98619.13
2023-03-31T16:46:23.695Z,98619.06
2023-03-31T16:48:56.250Z,98626.16
2023-03-31T16:51:23.350Z,98615.34
2023-03-31T16:53:50.011Z,98617.72
2023-03-31T16:56:17.251Z,98620.94
2023-03-31T16:58:53.800Z,98622.19
2023-03-31T17:01:20.707Z,98611.03
2023-03-31T17:03:48.143Z,98611.44
2023-03-31T17:06:24.117Z,98608.06
2023-03-31T17:08:50.746Z,98613.88
2023-03-31T17:11:17.494Z,98606.56
2023-03-31T17:13:44.898Z,98612.72
2023-03-31T17:16:21.990Z,98613.69
2023-03-31T17:18:56.224Z,98616.28
2023-03-31T17:21:23.733Z,98614.13
2023-03-31T17:23:50.495Z,98621.25
2023-03-31T17:26:17.795Z,98613.19
2023-03-31T17:28:44.532Z,98614.91
2023-03-31T17:31:15.574Z,98611.50
2023-03-31T17:33:42.492Z,98610.06
2023-03-31T17:36:09.394Z,98616.13
2023-03-31T17:38:36.154Z,98624.03
2023-03-31T17:41:06.316Z,98615.19
2023-03-31T17:43:33.452Z,98619.97
2023-03-31T17:46:01.659Z,98623.13
2023-03-31T17:48:28.782Z,98620.28
2023-03-31T17:50:55.387Z,98625.81
2023-03-31T17:53:22.004Z,98635.03
2023-03-31T17:55:50.904Z,98622.63
2023-03-31T17:58:17.564Z,98626.81
2023-03-31T18:00:44.657Z,98626.81
2023-03-31T18:03:11.695Z,98638.16
2023-03-31T18:05:39.366Z,98641.16
2023-03-31T18:08:06.249Z,98637.56
2023-03-31T18:10:33.196Z,98640.28
2023-03-31T18:13:02.317Z,98652.09
2023-03-31T18:15:29.123Z,98647.31
2023-03-31T18:17:56.147Z,98658.41
2023-03-31T18:20:23.304Z,98647.94
2023-03-31T18:22:49.875Z,98652.38
2023-03-31T18:25:16.748Z,98652.38
2023-03-31T18:27:43.587Z,98653.09
2023-03-31T18:30:10.596Z,98654.06
2023-03-31T18:32:38.627Z,98653.94
2023-03-31T18:35:05.842Z,98662.00
2023-03-31T18:37:33.789Z,98656.38
2023-03-31T18:40:00.402Z,98663.56
2023-03-31T18:42:27.156Z,98663.94
2023-03-31T18:44:53.876Z,98662.25
2023-03-31T18:47:21.122Z,98663.81
2023-03-31T18:49:48.532Z,98667.09
2023-03-31T18:52:17.996Z,98672.84
2023-03-31T18:54:44.672Z,98676.81
2023-03-31T18:57:11.738Z,98675.03
2023-03-31T18:59:39.107Z,98673.91
2023-03-31T19:02:08.973Z,98685.25
2023-03-31T19:04:35.749Z,98673.56
2023-03-31T19:07:02.279Z,98674.91
2023-03-31T19:09:28.995Z,98680.44
2023-03-31T19:11:57.222Z,98680.56
2023-03-31T19:14:23.826Z,98687.28
2023-03-31T19:16:50.685Z,98693.50
2023-03-31T19:19:17.504Z,98686.78
2023-03-31T19:21:44.680Z,98682.97
2023-03-31T19:24:11.676Z,98693.56
2023-03-31T19:26:38.351Z,98697.41
2023-03-31T19:29:05.522Z,98691.16
2023-03-31T19:31:40.648Z,98694.16
2023-03-31T19:34:08.612Z,98688.25
2023-03-31T19:36:35.458Z,98687.06
2023-03-31T19:39:03.724Z,98684.41
2023-03-31T19:41:31.487Z,98688.09
2023-03-31T19:43:58.235Z,98686.25
2023-03-31T19:46:25.395Z,98685.38
2023-03-31T19:48:52.459Z,98694.03
2023-03-31T19:51:19.155Z,98687.75
2023-03-31T19:53:46.167Z,98686.09
2023-03-31T19:56:14.677Z,98680.19
2023-03-31T19:58:41.400Z,98681.50
2023-03-31T20:01:13.948Z,98685.78
2023-03-31T20:03:42.092Z,98686.81
2023-03-31T20:06:12.699Z,98695.25
2023-03-31T20:08:42.797Z,98692.09
2023-03-31T20:11:12.120Z,98689.72
2023-03-31T20:13:39.157Z,98700.63
2023-03-31T20:16:07.934Z,98691.50
2023-03-31T20:18:35.899Z,98695.31
2023-03-31T20:21:07.739Z,98680.81
2023-03-31T20:23:34.850Z,98697.72
2023-03-31T20:26:01.382Z,98696.84
2023-03-31T20:28:28.636Z,98688.88
2023-03-31T20:30:58.307Z,98693.94
2023-03-31T20:33:27.398Z,98695.72
2023-03-31T20:36:14.179Z,98694.88
2023-03-31T20:38:43.108Z,98697.13
2023-03-31T20:41:10.964Z,98697.78
2023-03-31T20:43:39.694Z,98691.38
2023-03-31T20:46:07.519Z,98684.13
2023-03-31T20:48:36.094Z,98694.06
2023-03-31T20:51:03.377Z,98697.53
2023-03-31T20:53:32.364Z,98683.06
2023-03-31T20:55:59.406Z,98694.25
2023-03-31T20:58:26.299Z,98688.09
2023-03-31T21:00:56.660Z,98697.47
2023-03-31T21:03:23.496Z,98691.03
2023-03-31T21:05:50.646Z,98696.78
2023-03-31T21:08:17.313Z,98697.25
2023-03-31T21:10:45.070Z,98697.72
2023-03-31T21:13:14.296Z,98689.34
2023-03-31T21:15:44.280Z,98689.09
2023-03-31T21:18:13.207Z,98683.88
2023-03-31T21:20:39.812Z,98681.47
2023-03-31T21:23:06.383Z,98676.94
2023-03-31T21:25:33.151Z,98679.88
2023-03-31T21:27:59.852Z,98682.69
2023-03-31T21:30:26.730Z,98680.91
2023-03-31T21:32:53.965Z,98685.25
2023-03-31T21:35:26.741Z,98684.50
2023-03-31T21:37:53.377Z,98689.91
2023-03-31T21:40:21.072Z,98687.00
2023-03-31T21:42:48.182Z,98681.34
2023-03-31T21:45:14.833Z,98677.09
2023-03-31T21:47:44.525Z,98678.31
2023-03-31T21:50:11.304Z,98679.88
2023-03-31T21:52:37.863Z,98676.19
2023-03-31T21:55:04.612Z,98674.97
2023-03-31T21:57:31.530Z,98675.53
2023-03-31T21:59:58.189Z,98676.75
2023-03-31T22:02:24.744Z,98682.88
2023-03-31T22:04:51.577Z,98677.63
2023-03-31T22:07:18.883Z,98680.38
2023-03-31T22:09:45.490Z,98688.22
2023-03-31T22:12:12.637Z,98684.41
2023-03-31T22:14:39.262Z,98690.97
2023-03-31T22:17:05.862Z,98688.00
2023-03-31T22:19:32.489Z,98693.16
2023-03-31T22:21:59.145Z,98690.13
2023-03-31T22:24:25.808Z,98691.63
2023-03-31T22:26:52.377Z,98697.13
2023-03-31T22:29:19.086Z,98692.91
2023-03-31T22:31:45.708Z,98695.44
2023-03-31T22:34:12.411Z,98692.06
2023-03-31T22:36:38.934Z,98698.66
2023-03-31T22:39:08.300Z,98701.03
2023-03-31T22:41:35.011Z,98699.25
2023-03-31T22:44:01.653Z,98700.50
2023-03-31T22:46:28.219Z,98703.66
2023-03-31T22:48:55.619Z,98706.09
2023-03-31T22:51:22.188Z,98707.16
2023-03-31T22:53:49.456Z,98708.50
2023-03-31T22:56:16.311Z,98709.66
2023-03-31T22:58:42.973Z,98708.81
2023-03-31T23:01:16.762Z,98705.00
2023-03-31T23:03:49.624Z,98708.19
2023-03-31T23:06:16.446Z,98710.47
2023-03-31T23:08:44.847Z,98709.66
2023-03-31T23:11:12.825Z,98714.09
2023-03-31T23:13:39.640Z,98705.41
2023-03-31T23:16:16.955Z,98716.44
2023-03-31T23:18:46.205Z,98709.22
2023-03-31T23:21:19.409Z,98712.66
2023-03-31T23:23:46.388Z,98716.22
2023-03-31T23:26:14.960Z,98707.03
2023-03-31T23:28:44.893Z,98709.88
2023-03-31T23:31:13.347Z,98712.16
2023-03-31T23:33:40.930Z,98704.75
2023-03-31T23:36:08.078Z,98706.72
2023-03-31T23:38:35.009Z,98708.19
2023-03-31T23:41:04.602Z,98712.84
2023-03-31T23:43:31.340Z,98711.94
2023-03-31T23:45:57.947Z,98713.22
2023-03-31T23:48:24.961Z,98700.25
2023-03-31T23:50:51.568Z,98703.00
2023-03-31T23:53:18.185Z,98707.53
2023-03-31T23:55:54.834Z,98704.59
2023-03-31T23:58:21.507Z,98705.41
